Time;durP1;ratioP1;P1;durP2;ratioP2;P2;SDS_P1;SDS_P2;PMS_P1;PMS_P2;Temp;Humidity;BMP_temperature;BMP_pressure;BME280_temperature;BME280_humidity;BME280_pressure;Samples;Min_cycle;Max_cycle;Signal;HPM_P1;HPM_P2
2021/11/21 00:01:58;;;;;;;;;164.00;154.75;10.60;61.00;;;;;;5094563;28;8750;-66
2021/11/21 00:04:24;;;;;;;;;157.75;153.75;10.30;61.70;;;;;;5094307;28;8761;-65
2021/11/21 00:06:50;;;;;;;;;162.00;157.50;10.20;62.40;;;;;;5094253;28;8757;-65
2021/11/21 00:09:16;;;;;;;;;152.25;147.00;10.10;63.20;;;;;;5094105;28;8781;-65
2021/11/21 00:11:42;;;;;;;;;150.50;144.25;10.00;63.70;;;;;;5094278;28;9512;-65
2021/11/21 00:14:09;;;;;;;;;175.75;166.75;9.70;64.80;;;;;;5094443;28;8753;-65
2021/11/21 00:16:35;;;;;;;;;159.75;154.25;9.70;64.60;;;;;;5097971;28;8875;-65
2021/11/21 00:19:01;;;;;;;;;152.25;147.00;9.80;64.60;;;;;;5098071;28;9517;-65
2021/11/21 00:21:27;;;;;;;;;161.50;156.50;9.80;64.50;;;;;;5097867;28;8784;-65
2021/11/21 00:23:54;;;;;;;;;160.75;156.50;10.10;63.60;;;;;;5097827;28;8836;-65
2021/11/21 00:26:20;;;;;;;;;153.75;151.00;10.10;63.10;;;;;;5097921;28;8745;-65
2021/11/21 00:28:46;;;;;;;;;146.75;140.00;10.00;63.50;;;;;;5097748;28;8801;-65
2021/11/21 00:31:13;;;;;;;;;154.75;148.25;9.60;64.50;;;;;;5097648;28;8757;-65
2021/11/21 00:33:39;;;;;;;;;139.00;133.25;9.80;64.10;;;;;;5097809;28;8781;-65
2021/11/21 00:36:05;;;;;;;;;91.50;79.00;9.90;64.00;;;;;;5097477;28;9416;-65
2021/11/21 00:38:31;;;;;;;;;129.50;125.75;10.20;62.70;;;;;;5097896;28;8776;-65
2021/11/21 00:40:57;;;;;;;;;135.75;130.25;10.30;62.30;;;;;;5097556;28;8785;-65
2021/11/21 00:43:23;;;;;;;;;135.50;131.75;10.30;61.70;;;;;;5097490;28;8946;-65
2021/11/21 00:45:49;;;;;;;;;175.75;171.75;10.30;61.40;;;;;;5097357;28;8765;-64
2021/11/21 00:48:20;;;;;;;;;183.75;175.75;10.30;61.60;;;;;;5097203;28;8773;-65
2021/11/21 00:50:48;;;;;;;;;180.25;169.00;10.30;61.40;;;;;;5097717;28;8825;-65
2021/11/21 00:53:14;;;;;;;;;159.50;147.75;10.10;61.60;;;;;;5097548;28;8816;-65
2021/11/21 00:55:48;;;;;;;;;148.25;139.75;10.20;61.10;;;;;;5079339;28;8749;-65
2021/11/21 00:58:14;;;;;;;;;142.50;136.75;10.20;61.00;;;;;;5097272;28;8776;-65
2021/11/21 01:00:44;;;;;;;;;144.75;140.50;10.10;61.20;;;;;;5097258;28;8753;-65
2021/11/21 01:03:13;;;;;;;;;137.00;131.75;10.10;61.00;;;;;;5097337;28;9426;-65
2021/11/21 01:05:41;;;;;;;;;123.00;120.75;10.00;60.90;;;;;;5097392;28;9444;-65
2021/11/21 01:08:07;;;;;;;;;134.25;130.25;10.00;60.70;;;;;;5097281;28;8822;-65
2021/11/21 01:10:33;;;;;;;;;128.50;123.25;9.90;61.30;;;;;;5097216;28;8757;-65
2021/11/21 01:12:59;;;;;;;;;119.50;113.50;9.80;61.40;;;;;;5097086;28;9427;-65
2021/11/21 01:15:26;;;;;;;;;119.50;112.25;9.50;62.00;;;;;;5096688;28;8772;-65
2021/11/21 01:17:55;;;;;;;;;103.75;102.75;9.60;62.10;;;;;;5096950;28;8741;-65
2021/11/21 01:20:22;;;;;;;;;92.50;84.25;9.50;62.00;;;;;;5097136;28;8862;-65
2021/11/21 01:22:50;;;;;;;;;109.00;107.25;9.60;62.10;;;;;;5097010;28;8773;-65
2021/11/21 01:25:16;;;;;;;;;96.75;95.25;9.40;63.20;;;;;;5096854;28;8741;-65
2021/11/21 01:27:43;;;;;;;;;93.75;89.75;9.40;63.20;;;;;;5096791;28;9537;-65
2021/11/21 01:30:14;;;;;;;;;92.00;85.75;9.40;63.20;;;;;;5096669;28;8749;-65
2021/11/21 01:32:40;;;;;;;;;91.50;83.25;9.20;64.40;;;;;;5096536;28;8853;-65
2021/11/21 01:35:07;;;;;;;;;87.75;77.75;9.10;64.70;;;;;;5096658;28;8761;-65
2021/11/21 01:37:33;;;;;;;;;87.00;75.25;9.20;64.40;;;;;;5096448;28;8741;-65
2021/11/21 01:39:59;;;;;;;;;90.25;81.00;9.40;63.70;;;;;;5096657;28;8768;-65
2021/11/21 01:42:24;;;;;;;;;89.25;79.50;9.20;64.70;;;;;;5096425;28;8784;-65
2021/11/21 01:44:51;;;;;;;;;88.00;80.25;9.30;64.10;;;;;;5096180;28;8774;-65
2021/11/21 01:47:17;;;;;;;;;87.00;75.75;9.50;63.30;;;;;;5096088;28;8769;-65
2021/11/21 01:49:43;;;;;;;;;86.00;76.00;9.70;62.60;;;;;;5096258;28;8806;-65
2021/11/21 01:52:09;;;;;;;;;88.75;78.25;9.50;63.10;;;;;;5096443;28;8789;-65
2021/11/21 01:54:35;;;;;;;;;79.75;67.00;9.50;63.30;;;;;;5096169;28;8834;-64
2021/11/21 01:57:02;;;;;;;;;86.50;79.00;9.10;64.40;;;;;;5095521;28;8746;-64
2021/11/21 01:59:29;;;;;;;;;85.50;72.00;8.60;66.30;;;;;;5095605;28;8788;-65
2021/11/21 02:01:55;;;;;;;;;89.50;78.00;8.40;67.10;;;;;;5096328;28;8761;-64
2021/11/21 02:04:20;;;;;;;;;89.50;79.50;8.90;66.10;;;;;;5096190;28;8825;-64
2021/11/21 02:06:47;;;;;;;;;87.50;74.25;8.70;66.10;;;;;;5095893;28;9376;-65
2021/11/21 02:09:12;;;;;;;;;81.50;69.25;8.70;66.30;;;;;;5095960;28;9437;-64
2021/11/21 02:11:38;;;;;;;;;80.50;66.25;8.80;65.70;;;;;;5077860;28;8765;-64
2021/11/21 02:14:04;;;;;;;;;80.50;64.50;9.30;64.20;;;;;;5095967;28;8762;-65
2021/11/21 02:16:32;;;;;;;;;82.75;68.25;9.20;64.40;;;;;;5077315;28;9459;-65
2021/11/21 02:18:58;;;;;;;;;78.00;64.00;9.00;64.70;;;;;;5075393;28;8750;-65
2021/11/21 02:21:24;;;;;;;;;81.25;67.25;9.00;65.30;;;;;;5075576;28;8816;-64
2021/11/21 02:23:51;;;;;;;;;89.50;73.25;8.80;65.40;;;;;;5075249;28;8762;-65
2021/11/21 02:26:18;;;;;;;;;85.25;74.50;9.20;64.50;;;;;;5075346;28;8754;-65
2021/11/21 02:28:47;;;;;;;;;90.75;82.00;9.40;63.70;;;;;;5075194;28;8758;-65
2021/11/21 02:31:14;;;;;;;;;88.75;79.00;9.50;63.20;;;;;;5075085;28;8766;-65
2021/11/21 02:33:42;;;;;;;;;90.00;82.00;9.50;63.10;;;;;;5074972;28;8790;-65
2021/11/21 02:36:08;;;;;;;;;82.75;69.50;9.40;63.80;;;;;;5074925;28;8787;-65
2021/11/21 02:38:36;;;;;;;;;89.75;76.75;9.30;64.50;;;;;;5074344;28;8754;-65
2021/11/21 02:41:06;;;;;;;;;85.00;72.00;8.70;66.80;;;;;;5074999;28;8774;-64
2021/11/21 02:43:32;;;;;;;;;82.00;67.50;8.50;68.40;;;;;;5074944;28;8766;-65
2021/11/21 02:45:58;;;;;;;;;82.00;69.50;8.50;68.70;;;;;;5075174;28;8757;-64
2021/11/21 02:48:27;;;;;;;;;85.50;74.00;8.70;67.80;;;;;;5074689;28;8827;-65
2021/11/21 02:50:54;;;;;;;;;82.75;72.00;8.70;67.70;;;;;;5075121;28;8823;-65
2021/11/21 02:53:23;;;;;;;;;83.00;71.00;9.10;66.30;;;;;;5074717;28;8793;-65
2021/11/21 02:55:56;;;;;;;;;84.25;69.50;9.00;66.60;;;;;;5074696;28;8769;-65
2021/11/21 02:58:26;;;;;;;;;82.50;69.25;8.60;68.20;;;;;;5074654;28;8781;-64
2021/11/21 03:00:54;;;;;;;;;91.75;80.75;8.20;69.70;;;;;;5074978;28;8758;-64
2021/11/21 03:03:20;;;;;;;;;89.00;79.00;7.90;70.90;;;;;;5074932;28;8835;-64
2021/11/21 03:05:45;;;;;;;;;93.50;84.50;7.50;72.90;;;;;;5074493;28;9761;-65
2021/11/21 03:08:11;;;;;;;;;82.25;70.00;7.60;72.70;;;;;;5074825;28;8762;-65
2021/11/21 03:10:38;;;;;;;;;91.00;83.00;7.90;71.40;;;;;;5074459;28;8912;-65
2021/11/21 03:13:08;;;;;;;;;90.00;80.50;8.30;69.70;;;;;;5074418;28;8817;-65
2021/11/21 03:15:34;;;;;;;;;92.00;84.25;7.90;70.60;;;;;;5074621;28;8765;-64
2021/11/21 03:18:02;;;;;;;;;92.75;84.25;7.90;71.60;;;;;;5056734;28;8875;-65
2021/11/21 03:20:31;;;;;;;;;92.00;82.75;8.30;69.70;;;;;;5074678;28;9552;-65
2021/11/21 03:22:58;;;;;;;;;90.75;82.75;8.30;69.10;;;;;;5074263;28;8778;-65
2021/11/21 03:25:24;;;;;;;;;95.25;89.25;8.00;70.10;;;;;;5074436;28;8758;-65
2021/11/21 03:27:50;;;;;;;;;90.75;82.25;7.90;70.20;;;;;;5074396;28;8769;-64
2021/11/21 03:30:19;;;;;;;;;93.00;83.75;8.00;69.90;;;;;;5074562;28;8870;-65
2021/11/21 03:32:48;;;;;;;;;92.50;82.25;7.80;70.30;;;;;;5074198;28;8890;-65
2021/11/21 03:35:14;;;;;;;;;88.75;74.25;7.80;70.70;;;;;;5074506;28;8770;-65
2021/11/21 03:37:41;;;;;;;;;88.00;76.75;7.60;71.60;;;;;;5074232;28;8868;-65
2021/11/21 03:40:10;;;;;;;;;92.75;87.00;7.80;70.60;;;;;;5074519;28;9510;-65
2021/11/21 03:42:37;;;;;;;;;93.75;85.75;7.70;70.80;;;;;;5074261;28;8797;-65
2021/11/21 03:45:04;;;;;;;;;94.00;85.25;7.50;71.20;;;;;;5074289;28;8815;-65
2021/11/21 03:47:30;;;;;;;;;86.50;74.25;7.30;71.70;;;;;;5073976;28;8809;-64
2021/11/21 03:49:56;;;;;;;;;88.50;77.25;7.30;72.30;;;;;;5076035;28;8818;-65
2021/11/21 03:52:22;;;;;;;;;81.25;67.75;7.50;71.20;;;;;;5078331;28;8801;-65
2021/11/21 03:54:48;;;;;;;;;79.50;64.50;7.50;71.30;;;;;;5078176;28;8769;-65
2021/11/21 03:57:14;;;;;;;;;79.50;64.25;7.30;71.90;;;;;;5077996;28;8758;-65
2021/11/21 03:59:40;;;;;;;;;74.00;61.25;7.40;72.00;;;;;;5078119;28;8851;-65
2021/11/21 04:02:06;;;;;;;;;80.00;64.25;7.60;70.80;;;;;;5078276;28;8802;-65
2021/11/21 04:04:32;;;;;;;;;78.25;65.00;7.90;69.50;;;;;;5077999;28;8776;-65
2021/11/21 04:06:59;;;;;;;;;82.25;67.00;7.90;69.60;;;;;;5077917;28;8792;-65
2021/11/21 04:09:24;;;;;;;;;78.50;63.50;8.30;67.60;;;;;;5078121;28;8778;-65
2021/11/21 04:11:51;;;;;;;;;79.50;65.25;8.50;66.10;;;;;;5077695;28;9453;-66
2021/11/21 04:14:18;;;;;;;;;86.50;70.25;8.70;65.00;;;;;;5077716;28;8781;-66
2021/11/21 04:16:44;;;;;;;;;89.25;79.75;8.50;65.10;;;;;;5077681;28;8769;-66
2021/11/21 04:19:10;;;;;;;;;92.50;81.75;8.40;65.70;;;;;;5077639;28;8905;-66
2021/11/21 04:21:37;;;;;;;;;87.00;76.25;8.40;65.80;;;;;;5077736;28;8868;-65
2021/11/21 04:24:05;;;;;;;;;88.75;77.75;8.50;65.50;;;;;;5077607;28;8766;-65
2021/11/21 04:26:32;;;;;;;;;84.75;70.75;8.50;65.10;;;;;;5077746;28;8853;-66
2021/11/21 04:28:58;;;;;;;;;81.25;67.00;8.40;65.00;;;;;;5077874;28;8777;-66
2021/11/21 04:31:23;;;;;;;;;83.25;67.00;8.20;65.50;;;;;;5077704;28;9424;-66
2021/11/21 04:33:49;;;;;;;;;79.00;64.25;8.10;66.00;;;;;;5077616;28;8778;-66
2021/11/21 04:36:15;;;;;;;;;82.50;66.00;8.20;65.90;;;;;;5077362;28;8908;-66
2021/11/21 04:38:41;;;;;;;;;79.75;66.00;8.30;65.40;;;;;;5077539;28;8766;-66
2021/11/21 04:41:07;;;;;;;;;83.00;65.50;8.30;65.20;;;;;;5077372;28;8774;-66
2021/11/21 04:43:32;;;;;;;;;78.50;63.25;8.40;64.80;;;;;;5077154;28;8774;-66
2021/11/21 04:45:59;;;;;;;;;86.00;70.75;8.60;65.20;;;;;;5077133;28;8757;-66
2021/11/21 04:48:25;;;;;;;;;84.50;70.50;8.40;64.30;;;;;;5077145;28;8814;-66
2021/11/21 04:50:52;;;;;;;;;85.75;70.25;8.50;64.30;;;;;;5077684;28;8810;-66
2021/11/21 04:53:17;;;;;;;;;89.75;78.00;8.50;63.70;;;;;;5076990;28;8782;-66
2021/11/21 04:55:43;;;;;;;;;101.25;100.00;8.70;63.60;;;;;;5076914;28;8758;-66
2021/11/21 04:58:09;;;;;;;;;111.75;103.00;8.30;64.50;;;;;;5077092;28;8761;-66
2021/11/21 05:00:35;;;;;;;;;86.75;74.00;7.50;67.40;;;;;;5076321;28;9477;-66
2021/11/21 05:03:01;;;;;;;;;88.50;75.75;7.30;69.30;;;;;;5077205;28;8766;-66
2021/11/21 05:05:27;;;;;;;;;81.75;68.00;7.50;68.40;;;;;;5076744;28;8754;-66
2021/11/21 05:07:53;;;;;;;;;89.25;78.00;7.40;68.90;;;;;;5077175;28;8822;-66
2021/11/21 05:10:21;;;;;;;;;90.25;81.25;7.80;67.50;;;;;;5076720;28;8761;-66
2021/11/21 05:12:47;;;;;;;;;89.00;77.50;8.20;65.80;;;;;;5076937;28;8851;-67
2021/11/21 05:15:16;;;;;;;;;85.75;71.25;8.40;64.80;;;;;;5076532;28;8870;-66
2021/11/21 05:17:45;;;;;;;;;85.75;72.25;8.60;64.10;;;;;;5076642;28;8815;-66
2021/11/21 05:20:14;;;;;;;;;85.50;71.00;8.50;63.70;;;;;;5076894;28;8794;-66
2021/11/21 05:22:39;;;;;;;;;85.75;71.25;8.60;63.50;;;;;;5076500;28;8785;-66
2021/11/21 05:25:06;;;;;;;;;91.50;82.25;8.30;63.90;;;;;;5076682;28;8766;-66
2021/11/21 05:27:32;;;;;;;;;95.25;88.75;8.30;64.40;;;;;;5076451;28;8781;-66
2021/11/21 05:29:58;;;;;;;;;96.25;91.75;8.20;64.40;;;;;;5076481;28;8793;-66
2021/11/21 05:32:24;;;;;;;;;110.50;107.50;8.30;64.30;;;;;;5076514;28;8794;-66
2021/11/21 05:34:51;;;;;;;;;114.25;111.00;8.40;63.40;;;;;;5076276;28;9432;-65
2021/11/21 05:37:17;;;;;;;;;102.25;97.75;8.50;63.00;;;;;;5076121;28;8777;-66
2021/11/21 05:39:43;;;;;;;;;114.75;108.25;8.40;63.50;;;;;;5076202;28;8754;-66
2021/11/21 05:42:09;;;;;;;;;110.00;108.25;8.30;63.80;;;;;;5076412;28;9483;-66
2021/11/21 05:44:36;;;;;;;;;89.00;82.00;7.90;65.20;;;;;;5076235;28;8766;-66
2021/11/21 05:47:02;;;;;;;;;113.75;113.50;8.10;64.70;;;;;;5076057;28;8754;-66
2021/11/21 05:49:28;;;;;;;;;108.75;105.25;8.30;64.10;;;;;;5076232;28;9529;-66
2021/11/21 05:51:53;;;;;;;;;109.75;100.25;8.40;63.40;;;;;;5075917;28;8785;-65
2021/11/21 05:54:19;;;;;;;;;104.50;102.25;8.50;63.10;;;;;;5075897;28;8754;-66
2021/11/21 05:56:45;;;;;;;;;103.25;100.75;8.50;63.20;;;;;;5076175;28;8767;-66
2021/11/21 05:59:11;;;;;;;;;100.25;92.00;8.40;63.40;;;;;;5075734;28;9401;-66
2021/11/21 06:01:37;;;;;;;;;100.75;98.25;8.30;64.40;;;;;;5075765;28;8888;-66
2021/11/21 06:04:03;;;;;;;;;103.00;99.50;8.50;63.60;;;;;;5075642;28;8775;-66
2021/11/21 06:06:29;;;;;;;;;102.50;94.50;8.50;63.50;;;;;;5075576;28;8754;-66
2021/11/21 06:08:55;;;;;;;;;102.75;101.25;8.50;63.40;;;;;;5075817;28;8793;-65
2021/11/21 06:11:21;;;;;;;;;99.75;95.50;8.60;63.30;;;;;;5075399;28;8774;-66
2021/11/21 06:13:46;;;;;;;;;139.50;134.50;8.60;63.40;;;;;;5074684;28;8910;-66
2021/11/21 06:16:12;;;;;;;;;157.50;152.50;8.40;64.00;;;;;;5075609;28;8915;-66
2021/11/21 06:18:38;;;;;;;;;145.50;141.00;8.50;64.30;;;;;;5075414;28;9423;-66
2021/11/21 06:21:04;;;;;;;;;186.75;178.25;8.40;64.70;;;;;;5075642;28;8809;-66
2021/11/21 06:23:33;;;;;;;;;169.50;165.25;8.40;64.50;;;;;;5075557;28;9448;-65
2021/11/21 06:26:00;;;;;;;;;153.25;149.75;8.50;64.40;;;;;;5075424;28;8762;-66
2021/11/21 06:28:26;;;;;;;;;141.25;139.75;8.70;63.80;;;;;;5075499;28;8816;-65
2021/11/21 06:30:52;;;;;;;;;173.50;165.50;8.70;63.80;;;;;;5075241;28;8786;-66
2021/11/21 06:33:18;;;;;;;;;135.00;131.50;8.50;64.30;;;;;;5075086;28;8802;-66
2021/11/21 06:35:45;;;;;;;;;163.25;152.50;8.50;65.30;;;;;;5075060;28;8755;-66
2021/11/21 06:38:11;;;;;;;;;197.75;188.75;8.70;64.50;;;;;;5074991;28;8758;-66
2021/11/21 06:40:37;;;;;;;;;187.25;181.00;8.70;65.00;;;;;;5075041;28;8847;-66
2021/11/21 06:43:03;;;;;;;;;174.00;170.25;8.50;65.20;;;;;;5075304;28;8770;-66
2021/11/21 06:45:29;;;;;;;;;145.75;142.25;8.90;64.60;;;;;;5075128;28;8758;-66
2021/11/21 06:47:55;;;;;;;;;150.00;144.75;8.80;64.50;;;;;;5074666;28;8801;-66
2021/11/21 06:50:21;;;;;;;;;165.50;157.25;8.80;64.80;;;;;;5074950;28;8805;-66
2021/11/21 06:52:47;;;;;;;;;168.25;161.75;8.90;64.60;;;;;;5074603;28;8912;-66
2021/11/21 06:55:16;;;;;;;;;165.25;156.00;9.00;64.30;;;;;;5074698;28;8770;-66
2021/11/21 06:57:41;;;;;;;;;195.50;192.75;9.10;64.10;;;;;;5074652;28;8869;-66
2021/11/21 07:00:11;;;;;;;;;216.75;208.50;9.20;63.80;;;;;;5074639;28;8904;-66
2021/11/21 07:02:37;;;;;;;;;213.50;197.50;8.90;65.20;;;;;;5074664;28;8804;-66
2021/11/21 07:05:03;;;;;;;;;213.75;206.75;9.00;65.00;;;;;;5074781;28;9450;-65
2021/11/21 07:07:29;;;;;;;;;209.50;203.00;9.00;64.70;;;;;;5084701;28;8772;-65
2021/11/21 07:09:55;;;;;;;;;223.00;208.50;9.30;64.30;;;;;;5094609;28;8763;-65
2021/11/21 07:12:21;;;;;;;;;220.75;211.00;9.30;64.10;;;;;;5094887;28;8822;-65
2021/11/21 07:14:46;;;;;;;;;211.50;203.25;9.40;63.60;;;;;;5094468;28;8775;-66
2021/11/21 07:17:12;;;;;;;;;194.00;188.25;9.40;63.80;;;;;;5094695;28;8818;-66
2021/11/21 07:19:38;;;;;;;;;185.00;179.50;9.10;64.90;;;;;;5093721;28;8941;-66
2021/11/21 07:22:04;;;;;;;;;187.00;182.25;8.90;66.60;;;;;;5094533;28;8763;-66
2021/11/21 07:24:31;;;;;;;;;191.25;184.50;8.20;69.40;;;;;;5094224;28;8776;-66
2021/11/21 07:26:57;;;;;;;;;183.75;183.75;7.90;71.40;;;;;;5094513;28;8772;-66
2021/11/21 07:29:28;;;;;;;;;191.50;183.75;7.90;72.00;;;;;;5094713;28;8835;-65
2021/11/21 07:31:59;;;;;;;;;207.00;193.75;7.70;72.80;;;;;;5094512;28;8932;-66
2021/11/21 07:34:26;;;;;;;;;199.50;180.00;8.00;72.30;;;;;;5093929;28;8776;-66
2021/11/21 07:36:52;;;;;;;;;197.00;189.00;7.90;72.90;;;;;;5094406;28;8764;-66
2021/11/21 07:39:18;;;;;;;;;212.25;207.75;8.00;73.00;;;;;;5094366;28;8788;-65
2021/11/21 07:41:44;;;;;;;;;193.50;187.00;8.20;72.40;;;;;;5094405;28;8858;-66
2021/11/21 07:44:10;;;;;;;;;201.50;195.00;8.60;71.10;;;;;;5094342;28;8752;-65
2021/11/21 07:46:37;;;;;;;;;209.25;203.50;8.90;69.60;;;;;;5094330;28;8760;-66
2021/11/21 07:49:03;;;;;;;;;198.50;193.50;8.90;69.80;;;;;;5093548;28;8904;-66
2021/11/21 07:51:30;;;;;;;;;202.25;191.50;8.80;70.80;;;;;;5094590;28;9488;-66
2021/11/21 07:53:56;;;;;;;;;207.75;194.00;8.70;71.10;;;;;;5094331;28;9619;-66
2021/11/21 07:56:21;;;;;;;;;189.25;182.00;9.20;69.70;;;;;;5094330;28;8764;-65
2021/11/21 07:58:47;;;;;;;;;183.75;177.00;9.50;68.00;;;;;;5094260;28;8772;-65
2021/11/21 08:01:14;;;;;;;;;182.75;178.25;9.90;66.30;;;;;;5094129;28;8748;-66
2021/11/21 08:03:40;;;;;;;;;174.00;168.25;10.30;65.40;;;;;;5093870;28;9426;-67
2021/11/21 08:06:05;;;;;;;;;156.75;150.25;10.50;64.90;;;;;;5093980;28;8867;-69
2021/11/21 08:08:31;;;;;;;;;148.50;145.50;10.70;64.50;;;;;;5094213;28;8763;-68
2021/11/21 08:10:58;;;;;;;;;142.00;137.00;10.90;63.70;;;;;;5094325;28;8807;-69
2021/11/21 08:13:26;;;;;;;;;116.75;110.00;11.10;62.90;;;;;;5094163;28;8810;-72
2021/11/21 08:15:54;;;;;;;;;98.50;96.50;11.00;64.00;;;;;;5094006;28;8771;-71
2021/11/21 08:18:20;;;;;;;;;95.25;92.50;10.70;65.50;;;;;;5093853;28;8785;-70
2021/11/21 08:20:45;;;;;;;;;115.00;112.50;10.70;65.40;;;;;;5093731;28;8784;-70
2021/11/21 08:23:11;;;;;;;;;118.50;117.50;10.30;67.00;;;;;;5094308;28;8825;-70
2021/11/21 08:25:38;;;;;;;;;121.25;120.00;10.10;69.40;;;;;;5094062;28;8856;-69
2021/11/21 08:28:04;;;;;;;;;123.50;116.50;9.80;69.90;;;;;;5094016;28;8751;-72
2021/11/21 08:30:32;;;;;;;;;106.00;105.25;10.00;70.70;;;;;;5093921;28;8755;-66
2021/11/21 08:32:58;;;;;;;;;108.50;103.75;10.10;69.90;;;;;;5093944;28;9462;-66
2021/11/21 08:35:24;;;;;;;;;98.75;98.00;10.30;69.60;;;;;;5093876;28;8786;-70
2021/11/21 08:37:50;;;;;;;;;140.75;139.00;10.20;69.80;;;;;;5097493;28;8760;-66
2021/11/21 08:40:16;;;;;;;;;90.50;83.00;9.90;71.30;;;;;;5093777;28;8815;-66
2021/11/21 08:42:41;;;;;;;;;97.75;94.25;9.80;71.90;;;;;;5093180;28;8848;-65
2021/11/21 08:45:09;;;;;;;;;94.25;93.50;9.70;72.80;;;;;;5093647;28;9529;-63
2021/11/21 08:47:36;;;;;;;;;98.25;96.00;10.00;71.90;;;;;;5094721;28;8770;-68
2021/11/21 08:50:06;;;;;;;;;84.00;77.00;10.10;71.40;;;;;;5092406;28;8942;-67
2021/11/21 08:52:31;;;;;;;;;93.00;88.75;10.10;71.90;;;;;;5094141;28;8806;-71
2021/11/21 08:54:57;;;;;;;;;86.75;81.00;10.40;71.00;;;;;;5096340;28;8754;-69
2021/11/21 08:57:23;;;;;;;;;84.00;77.25;10.40;70.70;;;;;;5097631;28;8738;-69
2021/11/21 08:59:49;;;;;;;;;79.75;68.25;10.50;70.90;;;;;;5097143;28;8785;-73
2021/11/21 09:02:15;;;;;;;;;86.25;81.50;10.70;70.40;;;;;;5097497;28;8765;-72
2021/11/21 09:04:40;;;;;;;;;82.75;71.50;10.80;70.50;;;;;;5096674;28;8780;-75
2021/11/21 09:07:06;;;;;;;;;81.00;69.50;10.90;70.30;;;;;;5096115;28;8788;-70
2021/11/21 09:09:33;;;;;;;;;90.50;84.75;11.00;69.80;;;;;;5092620;28;8875;-63
2021/11/21 09:11:59;;;;;;;;;94.75;91.25;11.00;70.00;;;;;;5096847;28;8767;-64
2021/11/21 09:14:26;;;;;;;;;85.50;81.00;11.20;69.30;;;;;;5096449;28;8792;-63
2021/11/21 09:16:53;;;;;;;;;91.50;88.75;11.20;69.70;;;;;;5096559;28;8764;-64
2021/11/21 09:19:19;;;;;;;;;96.75;95.00;11.50;68.80;;;;;;5095822;28;9160;-67
2021/11/21 09:21:45;;;;;;;;;90.00;86.00;11.80;68.00;;;;;;5095852;28;8799;-69
2021/11/21 09:24:11;;;;;;;;;87.75;82.25;11.90;67.30;;;;;;5074170;28;8872;-67
2021/11/21 09:26:37;;;;;;;;;85.75;75.75;12.20;67.00;;;;;;5095513;28;8791;-63
2021/11/21 09:29:04;;;;;;;;;90.50;83.25;12.00;67.30;;;;;;5096341;28;8760;-65
2021/11/21 09:31:29;;;;;;;;;89.50;89.50;12.40;65.90;;;;;;5086887;28;9520;-66
2021/11/21 09:33:55;;;;;;;;;85.50;80.00;12.60;65.00;;;;;;5091976;28;8819;-66
2021/11/21 09:36:21;;;;;;;;;85.00;79.25;12.50;65.80;;;;;;5093612;28;8780;-64
2021/11/21 09:38:48;;;;;;;;;81.25;74.50;12.30;66.30;;;;;;5094528;28;8764;-65
2021/11/21 09:41:14;;;;;;;;;85.00;80.50;12.90;64.50;;;;;;5095679;28;8824;-65
2021/11/21 09:43:43;;;;;;;;;86.25;80.00;12.90;65.40;;;;;;5091538;28;8772;-71
2021/11/21 09:46:10;;;;;;;;;93.75;89.00;13.00;64.30;;;;;;5089910;28;8768;-68
2021/11/21 09:48:37;;;;;;;;;70.50;58.00;13.40;62.60;;;;;;5093105;28;8791;-69
2021/11/21 09:51:03;;;;;;;;;82.00;77.75;13.40;62.90;;;;;;5095666;28;8808;-67
2021/11/21 09:53:29;;;;;;;;;86.00;83.75;13.60;62.30;;;;;;5096119;28;8819;-66
2021/11/21 09:55:56;;;;;;;;;81.75;74.25;13.70;62.50;;;;;;5096358;28;8755;-67
2021/11/21 09:58:22;;;;;;;;;76.75;73.75;14.40;61.50;;;;;;5095477;28;8806;-68
2021/11/21 10:00:48;;;;;;;;;78.75;65.50;15.50;58.60;;;;;;5096278;28;9437;-67
2021/11/21 10:03:16;;;;;;;;;73.25;64.50;17.70;53.60;;;;;;5095528;28;8768;-70
2021/11/21 10:05:57;;;;;;;;;67.50;56.50;22.00;44.40;;;;;;5096254;28;8752;-67
2021/11/21 10:08:25;;;;;;;;;71.50;61.75;23.30;40.40;;;;;;5096264;28;8813;-66
2021/11/21 10:11:01;;;;;;;;;63.00;52.50;25.20;36.30;;;;;;5078084;28;8748;-68
2021/11/21 10:13:28;;;;;;;;;57.50;47.25;26.20;34.10;;;;;;5095914;28;9584;-68
2021/11/21 10:15:55;;;;;;;;;62.00;51.50;26.80;33.00;;;;;;5096089;28;8852;-72
2021/11/21 10:18:21;;;;;;;;;59.25;48.25;28.40;30.70;;;;;;5096060;28;8792;-73
2021/11/21 10:20:48;;;;;;;;;59.00;48.00;29.70;29.00;;;;;;5095609;28;9438;-73
2021/11/21 10:23:14;;;;;;;;;65.75;56.50;30.20;28.10;;;;;;5095167;28;8780;-71
2021/11/21 10:25:51;;;;;;;;;60.75;51.00;32.30;26.30;;;;;;5092274;28;8886;-71
2021/11/21 10:28:32;;;;;;;;;53.75;44.75;33.70;24.80;;;;;;5090121;28;8803;-70
2021/11/21 10:31:10;;;;;;;;;54.75;45.25;34.10;23.70;;;;;;5090409;28;8892;-73
2021/11/21 10:33:43;;;;;;;;;60.25;50.25;34.20;23.70;;;;;;5095193;28;8831;-73
2021/11/21 10:36:38;;;;;;;;;59.25;49.00;34.50;23.30;;;;;;5094463;28;8768;-69
2021/11/21 10:39:07;;;;;;;;;55.75;45.75;33.20;24.50;;;;;;5007527;28;8813;-73
2021/11/21 10:41:37;;;;;;;;;58.25;48.50;34.90;22.90;;;;;;5004353;28;8901;-73
2021/11/21 10:44:04;;;;;;;;;56.25;46.75;35.90;22.40;;;;;;5005736;28;8915;-72
2021/11/21 10:46:52;;;;;;;;;60.67;50.67;35.90;21.90;;;;;;5012227;28;8907;-74
2021/11/21 10:49:29;;;;;;;;;57.75;48.50;36.00;22.00;;;;;;4993644;28;8822;-72
2021/11/21 10:51:57;;;;;;;;;62.25;52.00;36.40;21.60;;;;;;4992786;28;8790;-73
2021/11/21 10:54:30;;;;;;;;;55.00;45.00;36.50;21.30;;;;;;4993368;28;8787;-72
2021/11/21 10:56:58;;;;;;;;;65.50;53.50;34.30;22.60;;;;;;4964672;28;8803;-73
2021/11/21 11:00:00;;;;;;;;;69.00;59.50;34.40;23.00;;;;;;4988448;28;8826;-73
2021/11/21 11:02:40;;;;;;;;;71.00;65.00;35.80;21.90;;;;;;4985162;28;8897;-72
2021/11/21 11:05:09;;;;;;;;;68.75;60.25;37.70;20.90;;;;;;4993318;28;8909;-71
2021/11/21 11:07:47;;;;;;;;;58.00;48.50;38.70;19.70;;;;;;4993285;28;8778;-73
2021/11/21 11:10:19;;;;;;;;;75.00;72.50;37.80;20.30;;;;;;4993282;28;8775;-73
2021/11/21 11:12:53;;;;;;;;;78.50;76.25;38.80;19.40;;;;;;4993263;28;8810;-73
2021/11/21 11:15:20;;;;;;;;;76.25;71.25;38.30;19.70;;;;;;5019969;28;8767;-72
2021/11/21 11:17:46;;;;;;;;;72.00;68.50;37.50;20.60;;;;;;5054558;28;8763;-73
2021/11/21 11:20:18;;;;;;;;;67.25;58.25;38.40;19.60;;;;;;5054664;28;8791;-74
2021/11/21 11:22:45;;;;;;;;;65.00;55.25;39.00;19.30;;;;;;5054806;28;8781;-73
2021/11/21 11:25:20;;;;;;;;;61.25;50.75;39.10;19.20;;;;;;5053463;28;8779;-73
2021/11/21 11:28:07;;;;;;;;;59.67;49.33;40.00;18.70;;;;;;5034717;28;8785;-72
2021/11/21 11:30:35;;;;;;;;;55.67;46.67;39.20;19.40;;;;;;5046109;28;9471;-72
2021/11/21 11:33:14;;;;;;;;;54.00;45.00;38.60;19.40;;;;;;5048600;28;8794;-71
2021/11/21 11:35:48;;;;;;;;;61.33;50.67;38.70;19.20;;;;;;5053597;28;8852;-73
2021/11/21 11:38:18;;;;;;;;;57.67;48.33;38.30;19.40;;;;;;5049194;28;8747;-74
2021/11/21 11:40:55;;;;;;;;;55.67;46.67;38.50;19.20;;;;;;5043546;28;9429;-73
2021/11/21 11:43:24;;;;;;;;;57.00;48.00;37.10;20.20;;;;;;5040439;28;8759;-74
2021/11/21 11:46:30;;;;;;;;;63.00;52.00;37.50;20.10;;;;;;5054312;28;8865;-72
2021/11/21 11:49:17;;;;;;;;;57.50;48.00;38.30;19.30;;;;;;5028551;28;8795;-71
2021/11/21 11:51:49;;;;;;;;;64.00;53.00;38.10;19.80;;;;;;5031000;28;8786;-69
2021/11/21 11:54:15;;;;;;;;;61.00;50.25;38.70;19.40;;;;;;5020943;28;8836;-72
2021/11/21 11:56:45;;;;;;;;;62.00;51.25;38.20;19.30;;;;;;5031102;28;8786;-72
2021/11/21 11:59:24;;;;;;;;;59.00;49.00;37.50;19.70;;;;;;5031494;28;8786;-71
2021/11/21 12:01:55;;;;;;;;;49.67;42.33;36.30;20.50;;;;;;5031526;28;8794;-73
2021/11/21 12:04:24;;;;;;;;;50.00;42.67;35.90;20.80;;;;;;5026949;28;8786;-73
2021/11/21 12:07:20;;;;;;;;;48.33;41.33;35.00;21.40;;;;;;5031891;28;8868;-72
2021/11/21 12:10:05;;;;;;;;;62.00;51.33;35.10;21.20;;;;;;5027199;28;8774;-72
2021/11/21 12:13:00;;;;;;;;;60.67;50.00;36.20;20.70;;;;;;5035731;28;8912;-74
2021/11/21 12:15:41;;;;;;;;;48.67;42.00;36.70;20.10;;;;;;5035895;28;8871;-72
2021/11/21 12:18:08;;;;;;;;;54.33;45.67;36.30;20.40;;;;;;5035853;28;8801;-72
2021/11/21 12:20:45;;;;;;;;;48.00;41.00;36.40;20.20;;;;;;5030617;28;8801;-73
2021/11/21 12:23:13;;;;;;;;;50.00;43.00;35.50;20.30;;;;;;5015860;28;8907;-75
2021/11/21 12:25:39;;;;;;;;;43.67;37.67;35.40;20.30;;;;;;5036722;28;8766;-72
2021/11/21 12:28:06;;;;;;;;;47.67;40.67;32.20;22.80;;;;;;5037833;28;8792;-71
2021/11/21 12:30:37;;;;;;;;;47.00;40.67;31.70;23.60;;;;;;5037651;28;8856;-71
2021/11/21 12:33:28;;;;;;;;;53.00;45.00;33.40;22.50;;;;;;5037462;28;8809;-72
2021/11/21 12:35:55;;;;;;;;;61.75;50.75;34.30;21.50;;;;;;5037514;28;9438;-72
2021/11/21 12:38:21;;;;;;;;;52.75;44.75;34.30;21.50;;;;;;5037048;28;8770;-69
2021/11/21 12:40:51;;;;;;;;;63.25;52.25;35.00;21.00;;;;;;5037595;28;8805;-73